createdAt,value
2022-08-11T00:02:04.540Z,2.42
2022-08-11T00:07:08.820Z,3.00
2022-08-11T00:12:17.923Z,7.88
2022-08-11T00:17:21.248Z,9.25
2022-08-11T00:22:24.587Z,10.20
2022-08-11T00:27:34.664Z,7.93
2022-08-11T00:32:44.418Z,5.75
2022-08-11T00:43:40.415Z,4.30
2022-08-11T00:49:04.763Z,4.57
2022-08-11T00:54:16.377Z,4.30
2022-08-11T00:59:35.371Z,3.65
2022-08-11T01:04:55.525Z,14.50
2022-08-11T01:10:23.030Z,4.57
2022-08-11T01:15:57.051Z,4.00
2022-08-11T01:21:27.764Z,4.97
2022-08-11T01:26:55.332Z,4.10
2022-08-11T01:32:22.244Z,4.50
2022-08-11T01:37:48.965Z,4.28
2022-08-11T01:43:36.248Z,3.60
2022-08-11T01:50:06.721Z,4.20
2022-08-11T01:55:08.040Z,4.30
2022-08-11T02:00:21.026Z,4.47
2022-08-11T02:05:48.302Z,4.60
2022-08-11T02:11:35.782Z,4.57
2022-08-11T02:17:09.444Z,4.50
2022-08-11T02:22:39.964Z,4.22
2022-08-11T02:27:51.520Z,4.45
2022-08-11T02:33:27.619Z,4.55
2022-08-11T02:38:50.582Z,4.50
2022-08-11T02:44:17.388Z,5.57
2022-08-11T02:50:02.791Z,4.97
2022-08-11T02:55:44.428Z,4.93
2022-08-11T03:01:16.044Z,6.32
2022-08-11T03:06:40.402Z,4.82
2022-08-11T03:12:25.686Z,4.55
2022-08-11T03:17:47.134Z,4.57
2022-08-11T03:23:19.677Z,4.47
2022-08-11T03:28:48.991Z,4.50
2022-08-11T03:34:07.002Z,4.60
2022-08-11T03:39:26.258Z,5.10
2022-08-11T03:44:50.422Z,5.72
2022-08-11T03:50:03.267Z,4.32
2022-08-11T03:55:28.370Z,6.38
2022-08-11T04:00:58.979Z,6.75
2022-08-11T04:06:29.506Z,6.05
2022-08-11T04:11:50.451Z,5.18
2022-08-11T04:17:27.612Z,5.28
2022-08-11T04:24:33.378Z,4.72
2022-08-11T04:28:54.119Z,4.32
2022-08-11T04:34:14.953Z,4.70
2022-08-11T04:39:35.033Z,4.82
2022-08-11T04:45:17.002Z,4.75
2022-08-11T04:51:10.450Z,4.47
2022-08-11T04:56:44.185Z,5.05
2022-08-11T05:02:16.660Z,5.35
2022-08-11T05:08:04.267Z,3.55
2022-08-11T05:13:26.731Z,4.50
2022-08-11T05:18:49.120Z,6.03
2022-08-11T05:24:17.564Z,5.05
2022-08-11T05:35:02.403Z,5.25
2022-08-11T05:40:26.448Z,4.53
2022-08-11T05:45:57.302Z,5.03
2022-08-11T05:51:30.240Z,4.40
2022-08-11T05:56:35.372Z,4.40
2022-08-11T06:01:39.434Z,5.13
2022-08-11T06:06:58.154Z,4.07
2022-08-11T06:12:04.838Z,5.03
2022-08-11T06:17:07.525Z,4.83
2022-08-11T06:22:12.534Z,4.07
2022-08-11T06:27:26.716Z,4.10
2022-08-11T06:32:37.862Z,4.68
2022-08-11T06:37:59.458Z,3.78
2022-08-11T06:43:20.063Z,3.33
2022-08-11T06:48:24.517Z,3.75
2022-08-11T06:53:34.813Z,4.40
2022-08-11T06:58:59.057Z,3.95
2022-08-11T07:04:09.383Z,5.07
2022-08-11T07:09:53.054Z,3.30
2022-08-11T07:16:10.638Z,3.08
2022-08-11T07:22:00.297Z,3.50
2022-08-11T07:26:57.586Z,3.03
2022-08-11T07:32:09.784Z,2.58
2022-08-11T07:37:22.842Z,2.60
2022-08-11T07:42:31.886Z,2.63
2022-08-11T07:47:55.333Z,2.88
2022-08-11T07:53:03.084Z,2.70
2022-08-11T07:58:25.134Z,3.42
2022-08-11T08:03:54.032Z,3.20
2022-08-11T08:09:17.188Z,2.75
2022-08-11T08:14:38.818Z,1.90
2022-08-11T08:19:44.690Z,2.20
2022-08-11T08:24:47.881Z,2.25
2022-08-11T08:30:09.303Z,2.47
2022-08-11T08:35:13.070Z,2.50
2022-08-11T08:40:17.286Z,2.00
2022-08-11T08:45:21.262Z,2.25
2022-08-11T08:50:46.906Z,3.78
2022-08-11T08:55:51.804Z,1.52
2022-08-11T09:00:56.023Z,1.80
2022-08-11T09:05:59.259Z,1.50
2022-08-11T09:11:23.287Z,7.63
2022-08-11T09:16:26.099Z,1.73
2022-08-11T09:21:46.327Z,1.88
2022-08-11T09:27:03.054Z,1.75
2022-08-11T09:32:07.403Z,1.73
2022-08-11T09:37:55.178Z,1.77
2022-08-11T09:43:10.906Z,1.70
2022-08-11T09:48:13.671Z,1.63
2022-08-11T09:53:36.493Z,2.58
2022-08-11T09:58:42.417Z,2.13
2022-08-11T10:03:47.153Z,1.50
2022-08-11T10:08:52.826Z,3.42
2022-08-11T10:14:34.306Z,1.60
2022-08-11T10:19:38.531Z,4.68
2022-08-11T10:25:03.392Z,1.17
2022-08-11T10:30:27.236Z,1.50
2022-08-11T10:35:32.623Z,1.40
2022-08-11T10:40:36.271Z,1.25
2022-08-11T10:45:59.906Z,1.35
2022-08-11T10:51:14.800Z,1.40
2022-08-11T10:56:37.725Z,2.17
2022-08-11T11:01:42.983Z,1.48
2022-08-11T11:06:54.771Z,1.70
2022-08-11T11:12:20.230Z,1.30
2022-08-11T11:18:02.386Z,1.60
2022-08-11T11:23:29.191Z,1.10
2022-08-11T11:29:00.580Z,0.98
2022-08-11T11:34:24.964Z,1.17
2022-08-11T11:39:29.921Z,1.10
2022-08-11T11:44:33.315Z,1.13
2022-08-11T11:49:41.413Z,1.42
2022-08-11T11:54:44.319Z,1.30
2022-08-11T12:00:05.564Z,1.92
2022-08-11T12:05:15.310Z,1.10
2022-08-11T12:10:19.249Z,1.35
2022-08-11T12:16:04.180Z,1.48
2022-08-11T12:20:46.260Z,1.83
2022-08-11T12:26:26.431Z,1.33
2022-08-11T12:31:31.002Z,1.40
2022-08-11T12:36:38.093Z,1.30
2022-08-11T12:42:00.859Z,1.15
2022-08-11T12:47:05.024Z,2.03
2022-08-11T12:52:14.778Z,0.93
2022-08-11T12:57:55.685Z,1.35
2022-08-11T13:03:17.837Z,1.63
2022-08-11T13:08:21.163Z,1.67
2022-08-11T13:13:55.313Z,2.08
2022-08-11T13:18:47.493Z,1.25
2022-08-11T13:23:59.640Z,0.93
2022-08-11T13:29:05.735Z,2.50
2022-08-11T13:34:09.101Z,1.25
2022-08-11T13:39:14.744Z,0.90
2022-08-11T13:44:24.780Z,1.30
2022-08-11T13:49:31.983Z,1.23
2022-08-11T13:54:39.764Z,1.10
2022-08-11T13:59:52.446Z,1.10
2022-08-11T14:05:02.428Z,1.45
2022-08-11T14:10:07.553Z,2.20
2022-08-11T14:15:25.551Z,1.10
2022-08-11T14:20:49.851Z,1.20
2022-08-11T14:26:11.058Z,1.55
2022-08-11T14:31:15.852Z,1.38
2022-08-11T14:36:19.364Z,1.27
2022-08-11T14:42:11.894Z,1.20
2022-08-11T14:47:24.714Z,1.10
2022-08-11T14:52:28.451Z,3.15
2022-08-11T14:57:54.299Z,1.23
2022-08-11T15:03:11.867Z,2.30
2022-08-11T15:08:16.918Z,1.33
2022-08-11T15:13:27.537Z,2.03
2022-08-11T15:18:30.619Z,2.25
2022-08-11T15:23:51.701Z,1.50
2022-08-11T15:29:12.985Z,1.27
2022-08-11T15:34:35.419Z,1.35
2022-08-11T15:40:05.157Z,1.85
2022-08-11T15:45:28.997Z,1.20
2022-08-11T15:50:35.091Z,1.70
2022-08-11T15:55:38.754Z,1.53
2022-08-11T16:01:04.102Z,1.20
2022-08-11T16:06:13.856Z,3.67
2022-08-11T16:11:22.258Z,1.60
2022-08-11T16:16:25.032Z,2.20
2022-08-11T16:21:36.364Z,1.63
2022-08-11T16:27:09.294Z,1.85
2022-08-11T16:32:18.102Z,1.30
2022-08-11T16:37:40.928Z,4.38
2022-08-11T16:43:10.250Z,1.48
2022-08-11T16:48:37.558Z,1.30
2022-08-11T16:53:48.957Z,1.88
2022-08-11T16:59:17.625Z,1.30
2022-08-11T17:05:06.597Z,2.22
2022-08-11T17:10:52.046Z,1.65
2022-08-11T17:16:06.873Z,1.40
2022-08-11T17:21:16.423Z,1.90
2022-08-11T17:26:22.389Z,1.70
2022-08-11T17:31:44.592Z,3.15
2022-08-11T17:36:49.178Z,3.53
2022-08-11T17:42:12.190Z,2.15
2022-08-11T17:47:34.487Z,1.83
2022-08-11T17:52:56.580Z,2.15
2022-08-11T17:58:18.326Z,8.18
2022-08-11T18:03:33.223Z,4.97
2022-08-11T18:08:57.985Z,2.40
2022-08-11T18:14:22.137Z,3.35
2022-08-11T18:19:43.354Z,2.45
2022-08-11T18:25:07.130Z,5.78
2022-08-11T18:30:29.777Z,4.35
2022-08-11T18:35:51.725Z,2.10
2022-08-11T18:41:13.175Z,2.42
2022-08-11T18:46:37.581Z,3.08
2022-08-11T18:52:00.318Z,2.13
2022-08-11T18:57:23.668Z,2.80
2022-08-11T19:02:49.174Z,2.47
2022-08-11T19:08:11.858Z,2.40
2022-08-11T19:13:33.389Z,2.22
2022-08-11T19:18:54.902Z,2.45
2022-08-11T19:24:19.086Z,4.03
2022-08-11T19:30:11.126Z,2.58
2022-08-11T19:35:25.248Z,2.53
2022-08-11T19:40:47.326Z,2.28
2022-08-11T19:46:08.597Z,2.33
2022-08-11T19:51:30.812Z,2.70
2022-08-11T19:56:53.531Z,5.88
2022-08-11T20:02:17.696Z,2.33
2022-08-11T20:07:39.374Z,2.97
2022-08-11T20:13:02.246Z,3.42
2022-08-11T20:18:26.619Z,3.22
2022-08-11T20:23:48.377Z,2.97
2022-08-11T20:29:11.435Z,2.75
2022-08-11T20:34:33.779Z,2.53
2022-08-11T20:39:55.666Z,2.50
2022-08-11T20:45:23.619Z,2.60
2022-08-11T20:56:08.557Z,2.72
2022-08-11T21:01:38.907Z,3.13
2022-08-11T21:07:02.877Z,2.60
2022-08-11T21:12:24.947Z,2.35
2022-08-11T21:18:00.209Z,3.00
2022-08-11T21:23:30.609Z,1.80
2022-08-11T21:28:54.684Z,2.53
2022-08-11T21:34:16.581Z,2.78
2022-08-11T21:39:39.924Z,2.50
2022-08-11T21:45:02.626Z,2.35
2022-08-11T21:50:24.294Z,2.53
2022-08-11T21:55:49.363Z,2.10
2022-08-11T22:01:11.365Z,2.53
2022-08-11T22:06:35.492Z,2.47
2022-08-11T22:12:33.968Z,2.40
2022-08-11T22:17:39.476Z,2.75
2022-08-11T22:23:00.764Z,2.67
2022-08-11T22:28:23.008Z,3.00
2022-08-11T22:34:02.374Z,2.47
2022-08-11T22:39:26.241Z,2.83
2022-08-11T22:44:47.431Z,2.60
2022-08-11T22:50:13.156Z,2.60
2022-08-11T22:55:35.868Z,2.78
2022-08-11T23:01:01.682Z,2.75
2022-08-11T23:06:25.405Z,2.40
2022-08-11T23:12:07.017Z,2.65
2022-08-11T23:17:31.638Z,2.97
2022-08-11T23:22:52.812Z,3.05
2022-08-11T23:28:15.746Z,2.88
2022-08-11T23:33:37.848Z,3.20
2022-08-11T23:38:59.396Z,3.70
2022-08-11T23:44:21.544Z,3.20
2022-08-11T23:49:43.439Z,2.78
2022-08-11T23:55:05.362Z,3.03
